Time;durP1;ratioP1;P1;durP2;ratioP2;P2;SDS_P1;SDS_P2;PMS_P1;PMS_P2;Temp;Humidity;BMP_temperature;BMP_pressure;BME280_temperature;BME280_humidity;BME280_pressure;Samples;Min_cycle;Max_cycle;Signal;HPM_P1;HPM_P2
2022/02/14 00:00:40;;;;;;;4.90;1.38;;;;;;;-0.49;48.66;99539.72;5111717;28;20047;-58
2022/02/14 00:03:06;;;;;;;3.28;1.20;;;;;;;-0.46;48.52;99532.94;5131526;28;20046;-58
2022/02/14 00:05:33;;;;;;;4.63;1.50;;;;;;;-0.35;48.41;99560.25;5095779;28;20035;-59
2022/02/14 00:07:59;;;;;;;2.30;1.25;;;;;;;-0.35;48.66;99550.03;5130936;28;20042;-59
2022/02/14 00:10:24;;;;;;;2.47;1.20;;;;;;;-0.37;48.37;99552.59;5131098;28;20425;-60
2022/02/14 00:12:51;;;;;;;2.53;1.20;;;;;;;-0.46;48.45;99526.97;5131429;27;20047;-59
2022/02/14 00:15:18;;;;;;;3.20;1.23;;;;;;;-0.39;48.84;99553.41;5112682;28;20031;-58
2022/02/14 00:17:44;;;;;;;2.10;1.00;;;;;;;-0.38;48.78;99563.63;5131089;28;20126;-59
2022/02/14 00:20:10;;;;;;;3.03;1.10;;;;;;;-0.40;48.61;99539.78;5131166;28;20458;-59
2022/02/14 00:22:37;;;;;;;3.50;1.20;;;;;;;-0.39;48.71;99540.63;5130841;28;20344;-59
2022/02/14 00:25:03;;;;;;;5.03;1.40;;;;;;;-0.42;48.89;99547.41;5131024;28;20038;-58
2022/02/14 00:27:29;;;;;;;2.45;1.30;;;;;;;-0.42;48.48;99542.31;5094780;28;20103;-58
2022/02/14 00:29:54;;;;;;;4.32;1.60;;;;;;;-0.46;48.56;99537.19;5112688;28;20031;-57
2022/02/14 00:32:20;;;;;;;4.10;1.45;;;;;;;-0.46;48.74;99543.13;5130831;28;20043;-58
2022/02/14 00:34:47;;;;;;;2.67;1.00;;;;;;;-0.57;48.59;99528.56;5129411;28;20148;-59
2022/02/14 00:37:12;;;;;;;2.85;1.17;;;;;;;-0.48;48.91;99537.19;5130894;28;20047;-59
2022/02/14 00:39:39;;;;;;;4.25;1.40;;;;;;;-0.49;49.13;99539.72;5131165;28;20152;-60
2022/02/14 00:42:05;;;;;;;3.83;1.83;;;;;;;-0.54;48.87;99533.72;5112377;28;20536;-60
2022/02/14 00:44:31;;;;;;;2.05;0.85;;;;;;;-0.50;48.64;99546.53;5115992;28;20134;-58
2022/02/14 00:46:57;;;;;;;3.55;1.13;;;;;;;-0.50;48.82;99545.66;5130219;27;20547;-59
2022/02/14 00:49:23;;;;;;;2.22;0.93;;;;;;;-0.51;49.19;99539.69;5112720;28;20031;-60
2022/02/14 00:51:49;;;;;;;3.00;1.30;;;;;;;-0.53;49.11;99522.69;5128624;28;20043;-60
2022/02/14 00:54:14;;;;;;;7.75;1.38;;;;;;;-0.54;49.22;99521.81;5129528;28;20071;-59
2022/02/14 00:56:40;;;;;;;3.63;1.23;;;;;;;-0.56;48.95;99507.31;5131094;27;20074;-59
2022/02/14 00:59:06;;;;;;;1.83;0.98;;;;;;;-0.56;49.54;99507.31;5134393;27;20050;-57
2022/02/14 01:01:32;;;;;;;1.90;1.13;;;;;;;-0.54;49.43;99515.84;5133566;27;20042;-60
2022/02/14 01:03:58;;;;;;;6.43;1.50;;;;;;;-0.49;49.16;99520.16;5134065;27;20092;-60
2022/02/14 01:06:25;;;;;;;2.60;1.08;;;;;;;-0.47;49.13;99515.88;5134301;27;20071;-59
2022/02/14 01:08:52;;;;;;;5.13;1.60;;;;;;;-0.37;49.49;99533.84;5134468;27;20027;-60
2022/02/14 01:11:17;;;;;;;7.07;1.40;;;;;;;-0.43;49.29;99516.78;5134075;27;20071;-59
2022/02/14 01:13:43;;;;;;;2.53;1.08;;;;;;;-0.43;49.30;99515.09;5134159;27;20147;-60
2022/02/14 01:16:09;;;;;;;2.60;0.77;;;;;;;-0.48;49.26;99498.88;5133851;27;20399;-60
2022/02/14 01:18:35;;;;;;;3.47;1.30;;;;;;;-0.56;49.39;99482.66;5134285;27;20107;-60
2022/02/14 01:21:00;;;;;;;3.08;1.05;;;;;;;-0.46;49.29;99492.06;5133393;27;20043;-60
2022/02/14 01:23:26;;;;;;;4.45;1.38;;;;;;;-0.65;49.20;99481.72;5134246;27;20039;-60
2022/02/14 01:25:52;;;;;;;3.10;1.40;;;;;;;-0.50;49.32;99494.59;5125526;27;20051;-59
2022/02/14 01:28:18;;;;;;;2.47;1.15;;;;;;;-0.52;49.26;99484.38;5134091;27;20059;-60
2022/02/14 01:30:44;;;;;;;2.55;0.95;;;;;;;-0.50;49.47;99495.47;5122015;27;20502;-59
2022/02/14 01:33:09;;;;;;;4.95;1.65;;;;;;;-0.49;49.63;99512.50;5134286;27;20046;-58
2022/02/14 01:35:35;;;;;;;2.78;1.48;;;;;;;-0.51;49.57;99485.22;5133826;27;20043;-62
2022/02/14 01:38:02;;;;;;;3.60;1.67;;;;;;;-0.57;49.76;99467.31;5133745;27;20041;-60
2022/02/14 01:40:28;;;;;;;2.95;1.45;;;;;;;-0.48;49.69;99481.00;5133432;27;20498;-60
2022/02/14 01:42:54;;;;;;;4.43;0.77;;;;;;;-0.54;49.73;99475.88;5114718;27;20049;-60
2022/02/14 01:45:20;;;;;;;2.25;1.30;;;;;;;-0.55;49.86;99475.84;5133297;27;20050;-60
2022/02/14 01:47:45;;;;;;;2.03;0.93;;;;;;;-0.54;49.86;99475.00;5133414;27;20039;-59
2022/02/14 01:50:13;;;;;;;4.55;1.35;;;;;;;-0.56;50.06;99467.31;5115351;27;20031;-60
2022/02/14 01:52:40;;;;;;;3.35;1.55;;;;;;;-0.58;50.10;99456.28;5115873;27;20039;-58
2022/02/14 01:55:07;;;;;;;3.47;1.20;;;;;;;-0.59;50.21;99474.13;5133278;27;20031;-59
2022/02/14 01:57:35;;;;;;;2.58;0.88;;;;;;;-0.64;49.94;99451.13;5133233;27;20062;-61
2022/02/14 02:00:03;;;;;;;5.68;1.17;;;;;;;-0.66;50.48;99452.78;5133234;27;20058;-59
2022/02/14 02:02:38;;;;;;;1.75;0.95;;;;;;;-0.83;50.55;99428.00;5133101;27;20046;-60
2022/02/14 02:05:04;;;;;;;2.53;1.20;;;;;;;-0.76;50.47;99442.50;5133200;27;20211;-59
2022/02/14 02:07:30;;;;;;;1.98;1.33;;;;;;;-0.73;50.43;99455.31;5114629;27;20396;-58
2022/02/14 02:09:56;;;;;;;4.80;1.30;;;;;;;-0.71;50.72;99449.34;5113658;27;20039;-60
2022/02/14 02:12:25;;;;;;;8.27;1.48;;;;;;;-0.73;50.73;99463.78;5133121;27;20030;-59
2022/02/14 02:14:51;;;;;;;;;;;;;;;-0.71;50.55;99463.81;5132140;27;20039;-59
2022/02/14 02:17:17;;;;;;;2.97;1.00;;;;;;;-0.71;50.67;99471.47;5132255;27;19919;-60
2022/02/14 02:19:42;;;;;;;2.28;0.82;;;;;;;-0.74;50.81;99445.94;5114931;27;20047;-59
2022/02/14 02:22:08;;;;;;;3.88;1.00;;;;;;;-0.76;50.93;99451.03;5114309;27;20126;-60
2022/02/14 02:24:50;;;;;;;4.68;1.10;;;;;;;-0.75;51.05;99457.84;5132804;27;20042;-60
2022/02/14 02:27:16;;;;;;;2.22;1.10;;;;;;;-0.81;51.26;99464.59;5133232;27;20524;-59
2022/02/14 02:29:42;;;;;;;3.50;1.13;;;;;;;-0.81;51.38;99450.13;5132212;27;20402;-59
2022/02/14 02:32:10;;;;;;;3.17;1.20;;;;;;;-0.78;51.44;99456.94;5114067;27;20073;-60
2022/02/14 02:34:40;;;;;;;2.30;1.05;;;;;;;-0.80;51.53;99445.91;5114237;27;20066;-59
2022/02/14 02:37:08;;;;;;;3.03;1.17;;;;;;;-0.79;51.59;99447.59;5132863;27;20035;-59
2022/02/14 02:39:35;;;;;;;3.55;1.40;;;;;;;-0.78;51.54;99439.94;5132157;27;20031;-58
2022/02/14 02:42:04;;;;;;;2.90;1.38;;;;;;;-0.79;51.42;99445.91;5130799;27;20035;-59
2022/02/14 02:44:32;;;;;;;3.20;1.03;;;;;;;-0.79;51.57;99445.91;5113762;27;20038;-58
2022/02/14 02:46:59;;;;;;;6.32;1.55;;;;;;;-0.90;51.77;99422.00;5131796;27;20035;-60
2022/02/14 02:49:25;;;;;;;1.98;0.77;;;;;;;-0.78;51.75;99437.38;5132047;27;20035;-58
2022/02/14 02:51:52;;;;;;;2.70;1.20;;;;;;;-0.78;51.92;99436.53;5113741;27;20459;-59
2022/02/14 02:54:20;;;;;;;2.33;1.05;;;;;;;-0.77;52.04;99435.69;5113579;27;20043;-59
2022/02/14 02:56:47;;;;;;;2.03;1.10;;;;;;;-0.78;51.90;99433.97;5126189;27;20395;-59
2022/02/14 02:59:13;;;;;;;1.85;0.75;;;;;;;-0.79;51.93;99429.75;5131980;27;20087;-59
2022/02/14 03:01:40;;;;;;;3.22;1.42;;;;;;;-0.83;52.49;99423.75;5131810;27;20042;-59
2022/02/14 03:04:07;;;;;;;2.47;1.25;;;;;;;-0.89;52.30;99429.66;5113533;27;20514;-59
2022/02/14 03:06:33;;;;;;;1.73;0.90;;;;;;;-0.89;52.67;99421.19;5131884;27;20084;-59
2022/02/14 03:08:59;;;;;;;3.78;1.15;;;;;;;-0.90;52.60;99419.47;5131455;27;20039;-59
2022/02/14 03:11:25;;;;;;;10.10;1.38;;;;;;;-0.92;52.80;99398.16;5131535;27;20042;-59
2022/02/14 03:13:51;;;;;;;3.22;1.20;;;;;;;-0.91;53.16;99412.63;5111989;27;20039;-60
2022/02/14 03:16:18;;;;;;;2.42;0.88;;;;;;;-0.92;53.32;99399.03;5119796;27;20153;-58
2022/02/14 03:18:44;;;;;;;2.40;1.40;;;;;;;-0.92;53.11;99401.56;5113619;27;20039;-58
2022/02/14 03:21:11;;;;;;;3.35;1.33;;;;;;;-0.94;53.51;99395.59;5131178;27;20031;-57
2022/02/14 03:23:38;;;;;;;3.00;1.10;;;;;;;-0.96;53.57;99402.41;5113882;27;20035;-59
2022/02/14 03:26:04;;;;;;;3.75;1.50;;;;;;;-0.97;53.73;99387.94;5131987;27;20510;-60
2022/02/14 03:28:30;;;;;;;6.55;1.20;;;;;;;-1.06;53.85;99364.94;5131761;27;20047;-60
2022/02/14 03:30:56;;;;;;;2.47;1.15;;;;;;;-0.96;53.59;99383.69;5112916;27;20039;-60
2022/02/14 03:33:23;;;;;;;2.08;1.02;;;;;;;-0.97;53.78;99399.84;5131698;27;20039;-58
2022/02/14 03:35:50;;;;;;;5.40;0.95;;;;;;;-0.99;53.85;99392.16;5131184;27;20458;-59
2022/02/14 03:38:16;;;;;;;4.05;1.45;;;;;;;-1.01;54.02;99391.31;5131731;27;20145;-59
2022/02/14 03:40:42;;;;;;;5.88;1.02;;;;;;;-0.99;54.01;99398.97;5113007;28;20134;-60
2022/02/14 03:43:08;;;;;;;2.25;0.90;;;;;;;-1.13;54.24;99364.84;5113090;27;20133;-59
2022/02/14 03:45:35;;;;;;;2.85;1.45;;;;;;;-0.98;54.33;99387.91;5113530;28;20079;-57
2022/02/14 03:48:01;;;;;;;3.50;1.50;;;;;;;-0.99;54.22;99397.25;5130832;27;20051;-59
2022/02/14 03:50:27;;;;;;;2.38;1.10;;;;;;;-0.96;54.22;99392.22;5130573;27;20396;-59
2022/02/14 03:52:53;;;;;;;3.88;1.48;;;;;;;-0.98;54.35;99382.81;5091388;28;20076;-59
2022/02/14 03:55:20;;;;;;;3.25;1.65;;;;;;;-0.96;54.77;99387.09;5130240;28;20118;-59
2022/02/14 03:57:47;;;;;;;2.40;1.25;;;;;;;-0.99;54.72;99381.97;5131046;27;20129;-58
2022/02/14 04:00:13;;;;;;;5.72;1.20;;;;;;;-0.95;54.84;99396.47;5131170;28;20055;-58
2022/02/14 04:02:40;;;;;;;2.85;1.40;;;;;;;-1.03;55.18;99379.38;5129835;28;20096;-59
2022/02/14 04:05:06;;;;;;;2.60;1.40;;;;;;;-0.92;54.45;99377.75;5112634;28;20046;-59
2022/02/14 04:07:32;;;;;;;5.95;1.60;;;;;;;-0.94;55.01;99382.84;5131224;28;20375;-59
2022/02/14 04:09:59;;;;;;;2.53;1.35;;;;;;;-0.95;55.13;99375.19;5112922;28;20474;-60
2022/02/14 04:12:25;;;;;;;4.15;1.33;;;;;;;-0.96;54.96;99393.91;5112894;28;20046;-61
2022/02/14 04:14:51;;;;;;;4.30;1.67;;;;;;;-0.96;55.16;99391.34;5113156;28;20039;-58
2022/02/14 04:17:17;;;;;;;4.18;1.50;;;;;;;-0.99;55.14;99391.31;5130646;28;20066;-60
2022/02/14 04:19:43;;;;;;;2.63;1.45;;;;;;;-0.98;55.44;99390.47;5131217;28;20067;-59
2022/02/14 04:22:08;;;;;;;3.80;1.20;;;;;;;-1.01;55.32;99393.00;5130817;27;20050;-58
2022/02/14 04:24:34;;;;;;;2.85;1.20;;;;;;;-1.01;55.69;99383.66;5131235;28;20084;-59
2022/02/14 04:27:00;;;;;;;2.72;1.30;;;;;;;-1.00;55.49;99397.28;5131218;28;20039;-59
2022/02/14 04:29:26;;;;;;;5.40;1.67;;;;;;;-0.94;55.46;99400.69;5130967;28;20069;-58
2022/02/14 04:31:52;;;;;;;3.55;1.38;;;;;;;-0.89;55.47;99398.22;5130981;27;20039;-55
2022/02/14 04:34:19;;;;;;;3.17;1.38;;;;;;;-0.95;55.50;99396.47;5116552;27;20043;-58
2022/02/14 04:36:46;;;;;;;5.22;1.40;;;;;;;-0.83;55.25;99394.81;5134516;27;20117;-59
2022/02/14 04:39:12;;;;;;;5.20;1.40;;;;;;;-0.84;55.55;99399.09;5135057;27;20043;-59
2022/02/14 04:41:38;;;;;;;4.60;2.10;;;;;;;-0.80;55.64;99392.31;5134221;27;20593;-58
2022/02/14 04:44:04;;;;;;;4.05;1.70;;;;;;;-0.80;55.56;99399.97;5134725;27;20063;-60
2022/02/14 04:46:30;;;;;;;7.32;1.25;;;;;;;-0.85;55.54;99402.47;5134416;27;20035;-59
2022/02/14 04:48:56;;;;;;;3.72;1.08;;;;;;;-0.91;55.86;99390.53;5134234;27;20043;-58
2022/02/14 04:51:22;;;;;;;3.03;1.20;;;;;;;-0.96;55.89;99378.59;5134261;27;20043;-60
2022/02/14 04:53:47;;;;;;;2.45;1.25;;;;;;;-0.96;56.41;99378.59;5130349;27;20479;-59
2022/02/14 04:56:13;;;;;;;2.60;1.20;;;;;;;-0.99;55.93;99373.44;5132792;27;20141;-59
2022/02/14 04:58:39;;;;;;;1.80;0.88;;;;;;;-1.00;56.26;99374.31;5115738;27;20065;-60
2022/02/14 05:01:05;;;;;;;3.30;1.10;;;;;;;-0.95;56.30;99363.31;5132982;27;20069;-58
2022/02/14 05:03:30;;;;;;;7.93;2.03;;;;;;;-0.91;56.40;99371.81;5115014;27;20516;-59
2022/02/14 05:05:56;;;;;;;2.72;1.23;;;;;;;-0.90;56.36;99366.72;5133832;27;20038;-60
2022/02/14 05:08:22;;;;;;;1.63;1.20;;;;;;;-0.88;56.52;99387.13;5133555;27;20440;-59
2022/02/14 05:10:48;;;;;;;4.63;2.17;;;;;;;-0.94;56.44;99382.84;5114052;27;20076;-59
2022/02/14 05:13:13;;;;;;;3.65;2.00;;;;;;;-0.85;56.20;99384.63;5133423;27;20043;-59
2022/02/14 05:15:39;;;;;;;3.17;1.52;;;;;;;-0.87;56.15;99391.41;5133159;27;20038;-58
2022/02/14 05:18:05;;;;;;;2.95;1.35;;;;;;;-0.90;56.11;99391.41;5133726;27;20091;-58
2022/02/14 05:20:31;;;;;;;3.10;1.50;;;;;;;-0.88;56.59;99393.09;5134275;27;20046;-59
2022/02/14 05:22:56;;;;;;;2.78;1.40;;;;;;;-0.88;56.57;99387.13;5115589;27;20035;-58
2022/02/14 05:25:22;;;;;;;4.57;2.00;;;;;;;-0.78;56.19;99386.34;5141903;27;20550;-58
2022/02/14 05:27:48;;;;;;;4.65;1.90;;;;;;;-0.78;56.33;99388.03;5134117;27;20138;-59
2022/02/14 05:30:14;;;;;;;2.75;1.73;;;;;;;-0.81;56.25;99394.00;5124567;27;20058;-60
2022/02/14 05:32:39;;;;;;;5.95;2.20;;;;;;;-0.73;56.15;99400.00;5121258;27;20425;-59
2022/02/14 05:35:06;;;;;;;7.65;1.80;;;;;;;-0.70;56.43;99396.63;5113647;28;20465;-59
2022/02/14 05:37:31;;;;;;;7.40;1.23;;;;;;;-0.65;56.25;99394.94;5119787;27;20046;-61
2022/02/14 05:39:57;;;;;;;3.95;1.48;;;;;;;-0.66;56.34;99398.34;5133514;27;20067;-59
2022/02/14 05:42:24;;;;;;;3.72;1.67;;;;;;;-0.72;56.20;99386.38;5133513;27;20139;-59
2022/02/14 05:44:49;;;;;;;5.53;2.00;;;;;;;-0.78;56.59;99370.19;5130378;27;20043;-57
2022/02/14 05:47:15;;;;;;;3.70;1.50;;;;;;;-0.68;56.53;99383.00;5132641;27;20050;-57
2022/02/14 05:49:41;;;;;;;5.55;2.05;;;;;;;-0.62;56.55;99380.50;5131564;27;20570;-54
2022/02/14 05:52:08;;;;;;;1.90;1.20;;;;;;;-0.54;56.18;99383.09;5097269;27;20146;-57
2022/02/14 05:54:34;;;;;;;4.25;1.23;;;;;;;-0.54;56.27;99383.09;5133279;27;20502;-55
2022/02/14 05:57:00;;;;;;;1.65;1.10;;;;;;;-0.51;56.32;99394.16;5121431;27;20039;-58
2022/02/14 05:59:26;;;;;;;5.57;1.75;;;;;;;-0.58;56.52;99389.91;5112418;27;20062;-61
2022/02/14 06:01:52;;;;;;;3.42;1.40;;;;;;;-0.65;56.63;99392.38;5117277;27;20167;-59
2022/02/14 06:04:17;;;;;;;4.15;1.95;;;;;;;-0.64;56.91;99404.31;5132861;27;20498;-57
2022/02/14 06:06:43;;;;;;;3.75;1.60;;;;;;;-0.71;56.86;99397.47;5133017;27;20046;-59
2022/02/14 06:09:11;;;;;;;2.72;1.02;;;;;;;-0.70;56.91;99389.81;5131696;27;20050;-60
2022/02/14 06:11:37;;;;;;;7.80;2.30;;;;;;;-0.70;56.83;99391.50;5132626;27;20452;-60
2022/02/14 06:14:02;;;;;;;3.05;1.33;;;;;;;-0.73;57.06;99406.81;5132836;27;20131;-59
2022/02/14 06:16:28;;;;;;;2.92;1.58;;;;;;;-0.68;56.74;99395.75;5132987;27;20066;-59
2022/02/14 06:18:54;;;;;;;6.07;1.70;;;;;;;-0.68;56.96;99384.72;5131261;27;20035;-56
2022/02/14 06:21:19;;;;;;;3.95;1.70;;;;;;;-0.57;56.84;99395.81;5131794;27;20131;-60
2022/02/14 06:23:45;;;;;;;4.32;1.92;;;;;;;-0.47;56.91;99403.53;5125623;27;20047;-60
2022/02/14 06:26:11;;;;;;;4.72;1.63;;;;;;;-0.36;56.60;99406.16;5114561;27;20039;-57
2022/02/14 06:28:40;;;;;;;4.93;1.73;;;;;;;-0.28;56.24;99403.66;5114187;27;20391;-57
2022/02/14 06:31:07;;;;;;;3.28;1.60;;;;;;;-0.19;55.93;99403.69;5114179;27;20125;-56
2022/02/14 06:33:34;;;;;;;3.35;1.35;;;;;;;0.09;55.21;99404.63;5132059;27;20039;-58
2022/02/14 06:35:59;;;;;;;3.22;1.08;;;;;;;0.27;54.70;99407.22;5132124;27;20042;-58
2022/02/14 06:38:25;;;;;;;2.03;1.20;;;;;;;0.39;54.79;99403.00;5128407;27;20031;-65
2022/02/14 06:40:51;;;;;;;3.67;1.60;;;;;;;0.69;54.19;99406.44;5121205;27;20034;-59
2022/02/14 06:43:17;;;;;;;1.35;0.90;;;;;;;0.92;53.06;99402.19;5129828;27;20240;-59
2022/02/14 06:45:42;;;;;;;7.03;2.53;;;;;;;1.06;52.65;99395.34;5132375;27;20046;-68
2022/02/14 06:48:08;;;;;;;4.70;1.67;;;;;;;1.14;52.89;99400.47;5137759;27;20055;-61
2022/02/14 06:50:34;;;;;;;4.93;1.77;;;;;;;1.25;52.29;99381.69;5134265;27;20031;-61
2022/02/14 06:53:00;;;;;;;3.63;1.90;;;;;;;1.62;51.80;99395.22;5137336;27;20043;-61
2022/02/14 06:55:26;;;;;;;8.48;1.95;;;;;;;2.02;50.86;99405.34;5120805;27;20042;-60
2022/02/14 06:57:52;;;;;;;4.50;1.60;;;;;;;2.32;49.50;99392.34;5124017;27;20043;-60
2022/02/14 07:00:18;;;;;;;6.13;2.03;;;;;;;2.62;49.23;99400.72;5139608;27;20069;-61
2022/02/14 07:02:44;;;;;;;2.65;1.58;;;;;;;2.63;48.54;99392.16;5136135;27;20514;-62
2022/02/14 07:05:16;;;;;;;4.03;1.90;;;;;;;3.18;47.84;99402.84;5115199;27;20043;-60
2022/02/14 07:07:42;;;;;;;6.93;2.38;;;;;;;3.72;46.68;99391.97;5131087;27;20069;-60
2022/02/14 07:10:08;;;;;;;4.47;1.60;;;;;;;3.46;46.47;99414.53;5112121;27;20173;-58
2022/02/14 07:12:34;;;;;;;4.40;1.50;;;;;;;3.31;47.39;99389.00;5129204;27;20042;-56
2022/02/14 07:15:00;;;;;;;1.90;1.17;;;;;;;3.57;46.41;99376.72;5124170;27;20091;-61
2022/02/14 07:17:26;;;;;;;3.08;1.90;;;;;;;4.02;45.16;99369.34;5128578;27;20137;-61
2022/02/14 07:19:51;;;;;;;5.60;2.47;;;;;;;4.09;45.71;99387.22;5128820;27;20043;-62
2022/02/14 07:22:17;;;;;;;4.35;2.22;;;;;;;3.81;45.87;99391.03;5130987;27;20058;-61
2022/02/14 07:24:43;;;;;;;3.45;2.05;;;;;;;3.71;46.76;99386.88;5141380;27;20042;-61
2022/02/14 07:27:09;;;;;;;8.68;2.42;;;;;;;3.39;47.17;99376.94;5140667;27;20038;-60
2022/02/14 07:29:34;;;;;;;5.90;1.83;;;;;;;3.01;47.93;99382.44;5122449;27;20510;-61
2022/02/14 07:32:00;;;;;;;3.47;2.00;;;;;;;2.47;49.01;99366.59;5119205;27;20054;-56
2022/02/14 07:34:26;;;;;;;4.47;1.92;;;;;;;2.35;49.21;99376.97;5130584;27;20433;-55
2022/02/14 07:36:52;;;;;;;6.45;2.35;;;;;;;2.22;49.97;99370.19;5121438;27;20031;-56
2022/02/14 07:39:17;;;;;;;5.03;2.03;;;;;;;2.46;49.56;99375.16;5139941;27;20051;-59
2022/02/14 07:41:43;;;;;;;4.45;1.90;;;;;;;2.42;49.82;99373.47;5119461;27;20116;-57
2022/02/14 07:44:12;;;;;;;5.15;2.15;;;;;;;2.40;49.99;99382.06;5107793;27;20038;-59
2022/02/14 07:46:38;;;;;;;8.77;2.85;;;;;;;2.39;49.88;99385.47;5122731;27;20134;-54
2022/02/14 07:49:03;;;;;;;2.78;1.75;;;;;;;2.35;49.97;99399.19;5115067;27;20514;-58
2022/02/14 07:51:29;;;;;;;5.78;2.30;;;;;;;2.01;50.76;99396.78;5140014;27;20095;-56
2022/02/14 07:53:56;;;;;;;4.45;1.90;;;;;;;2.04;50.81;99378.81;5118999;27;20034;-61
2022/02/14 07:56:22;;;;;;;3.65;2.05;;;;;;;2.22;51.10;99390.69;5134056;27;20037;-61
2022/02/14 07:58:49;;;;;;;3.05;1.60;;;;;;;2.01;51.39;99388.25;5141631;27;20035;-61
2022/02/14 08:01:16;;;;;;;4.35;2.42;;;;;;;2.22;50.42;99392.41;5141479;27;20150;-61
2022/02/14 08:03:43;;;;;;;4.30;1.92;;;;;;;2.77;49.94;99392.91;5133904;27;20463;-61
2022/02/14 08:06:10;;;;;;;2.97;1.90;;;;;;;2.91;49.35;99383.38;5130545;27;20091;-56
2022/02/14 08:08:36;;;;;;;4.53;2.17;;;;;;;3.16;49.22;99376.28;5134231;27;20031;-62
2022/02/14 08:11:01;;;;;;;3.00;1.92;;;;;;;3.94;47.18;99377.13;5116042;27;20153;-65
2022/02/14 08:13:27;;;;;;;4.47;2.42;;;;;;;4.62;46.11;99390.75;5134886;27;20057;-62
2022/02/14 08:15:54;;;;;;;3.92;2.50;;;;;;;4.76;45.67;99375.97;5135377;27;20422;-59
2022/02/14 08:18:20;;;;;;;5.78;2.55;;;;;;;4.85;45.47;99374.97;5116782;27;20042;-61
2022/02/14 08:20:45;;;;;;;4.35;2.28;;;;;;;5.29;44.28;99392.22;5124336;27;20039;-60
2022/02/14 08:23:11;;;;;;;5.75;3.15;;;;;;;4.67;45.23;99407.00;5115803;27;20066;-60
2022/02/14 08:25:37;;;;;;;6.72;2.25;;;;;;;4.60;45.62;99375.38;5105244;27;20122;-61
2022/02/14 08:28:04;;;;;;;4.88;2.35;;;;;;;4.35;45.75;99370.56;5134771;27;20391;-62
2022/02/14 08:30:32;;;;;;;3.97;2.15;;;;;;;4.42;45.66;99378.19;5130234;27;20117;-60
2022/02/14 08:32:57;;;;;;;5.28;2.60;;;;;;;4.45;45.66;99374.75;5116157;27;20222;-62
2022/02/14 08:35:24;;;;;;;5.30;2.17;;;;;;;4.69;45.20;99382.94;5134680;27;20494;-61
2022/02/14 08:37:52;;;;;;;3.30;2.42;;;;;;;5.40;43.76;99380.84;5134427;27;20111;-63
2022/02/14 08:40:18;;;;;;;4.28;2.58;;;;;;;5.51;43.57;99370.34;5134341;27;20049;-64
2022/02/14 08:42:44;;;;;;;5.38;2.88;;;;;;;5.90;42.87;99367.03;5133581;27;20035;-67
2022/02/14 08:45:10;;;;;;;7.78;2.85;;;;;;;6.55;41.63;99369.03;5114733;27;20088;-63
2022/02/14 08:47:36;;;;;;;6.30;2.95;;;;;;;5.82;42.71;99357.69;5134477;27;20126;-63
2022/02/14 08:50:04;;;;;;;3.67;2.13;;;;;;;5.79;42.88;99378.41;5148364;27;20538;-65
2022/02/14 08:52:30;;;;;;;4.45;2.30;;;;;;;5.13;44.11;99372.78;5123027;27;20501;-62
2022/02/14 08:54:56;;;;;;;6.25;2.80;;;;;;;4.91;44.73;99380.03;5151603;27;20031;-61
2022/02/14 08:57:22;;;;;;;5.80;3.28;;;;;;;5.76;43.59;99392.19;5116974;27;20042;-61
2022/02/14 08:59:50;;;;;;;4.93;2.53;;;;;;;6.61;41.87;99354.25;5111460;27;20150;-59
2022/02/14 09:02:16;;;;;;;5.65;2.90;;;;;;;7.73;40.60;99368.59;5115245;27;20055;-60
2022/02/14 09:04:42;;;;;;;5.30;2.70;;;;;;;7.81;39.35;99366.63;5114194;27;20045;-59
2022/02/14 09:07:08;;;;;;;4.65;2.72;;;;;;;7.29;40.36;99345.66;5130725;27;20138;-60
2022/02/14 09:09:33;;;;;;;5.68;3.60;;;;;;;6.92;41.08;99363.84;5111439;27;20577;-59
2022/02/14 09:12:02;;;;;;;8.82;2.97;;;;;;;6.07;42.03;99343.44;5110718;28;20035;-59
2022/02/14 09:14:28;;;;;;;4.90;3.05;;;;;;;5.88;42.94;99355.03;5111585;28;20270;-58
2022/02/14 09:16:54;;;;;;;10.00;3.83;;;;;;;5.69;43.20;99366.56;5090370;28;20404;-58
2022/02/14 09:19:20;;;;;;;8.18;3.75;;;;;;;5.51;43.87;99383.22;5111272;28;20032;-58
2022/02/14 09:21:46;;;;;;;4.68;2.70;;;;;;;5.57;44.38;99382.28;5111872;28;20143;-57
2022/02/14 09:24:13;;;;;;;8.70;3.28;;;;;;;6.95;41.89;99369.81;5111892;28;20074;-58
2022/02/14 09:26:44;;;;;;;5.90;3.17;;;;;;;7.88;39.48;99362.97;5112177;28;20138;-58
2022/02/14 09:29:12;;;;;;;6.68;3.45;;;;;;;8.33;38.89;99372.91;5111289;28;20141;-60
2022/02/14 09:31:40;;;;;;;5.53;2.92;;;;;;;8.00;39.13;99354.88;5113321;28;20047;-56
2022/02/14 09:34:07;;;;;;;5.88;2.75;;;;;;;8.47;37.99;99352.63;5113099;28;20047;-58
2022/02/14 09:36:34;;;;;;;5.82;2.35;;;;;;;8.51;37.52;99349.03;5112962;28;20043;-58
2022/02/14 09:39:01;;;;;;;4.80;2.85;;;;;;;8.46;37.85;99356.94;5112503;28;20100;-60
2022/02/14 09:41:27;;;;;;;5.85;3.10;;;;;;;7.64;39.36;99348.97;5111424;28;20036;-59
2022/02/14 09:43:53;;;;;;;9.77;3.88;;;;;;;6.62;41.42;99353.38;5112929;28;20043;-59
2022/02/14 09:46:19;;;;;;;7.65;3.42;;;;;;;7.12;40.71;99348.66;5113148;28;20043;-56
2022/02/14 09:48:45;;;;;;;5.78;3.25;;;;;;;7.12;40.95;99338.34;5111615;28;20092;-58
2022/02/14 09:51:17;;;;;;;7.13;3.80;;;;;;;6.91;41.07;99352.66;5111704;28;20031;-57
2022/02/14 09:53:43;;;;;;;6.80;3.60;;;;;;;6.58;41.46;99361.22;5112183;28;20039;-58
2022/02/14 09:56:10;;;;;;;5.85;3.00;;;;;;;6.08;42.63;99345.13;5111954;28;20050;-58
2022/02/14 09:58:36;;;;;;;6.20;3.80;;;;;;;5.90;43.41;99345.53;5111905;28;20047;-59
2022/02/14 10:01:02;;;;;;;8.60;3.95;;;;;;;5.79;43.89;99340.56;5094559;28;20515;-58
2022/02/14 10:03:28;;;;;;;6.47;3.67;;;;;;;6.05;43.18;99337.47;5112755;28;20055;-58
2022/02/14 10:05:56;;;;;;;5.97;3.00;;;;;;;5.59;44.44;99359.91;5113277;27;20545;-56
2022/02/14 10:08:35;;;;;;;6.28;3.05;;;;;;;4.71;46.15;99338.31;5111375;28;20523;-60
2022/02/14 10:11:13;;;;;;;7.78;3.70;;;;;;;4.35;46.74;99340.53;5112758;28;20560;-60
2022/02/14 10:13:39;;;;;;;6.82;3.30;;;;;;;4.11;47.58;99341.75;5128682;27;20051;-62
2022/02/14 10:16:10;;;;;;;5.38;2.80;;;;;;;3.62;49.20;99341.53;5128437;27;20044;-57
2022/02/14 10:18:37;;;;;;;7.88;3.85;;;;;;;3.30;49.99;99349.59;5112389;28;20039;-57
2022/02/14 10:21:22;;;;;;;6.68;2.92;;;;;;;3.31;50.47;99355.59;5110761;28;20119;-61
2022/02/14 10:23:57;;;;;;;3.38;2.40;;;;;;;3.17;50.91;99366.03;5107797;28;20044;-57
2022/02/14 10:26:29;;;;;;;5.03;2.78;;;;;;;3.06;51.21;99356.72;5108680;27;20511;-56
2022/02/14 10:28:55;;;;;;;5.72;3.17;;;;;;;3.06;51.75;99359.28;5091438;28;20047;-57
2022/02/14 10:31:21;;;;;;;7.35;4.32;;;;;;;3.23;51.00;99349.69;5089823;28;20032;-56
2022/02/14 10:33:53;;;;;;;9.35;3.47;;;;;;;3.27;51.05;99362.50;5126347;27;20047;-56
2022/02/14 10:36:30;;;;;;;6.38;3.17;;;;;;;2.99;52.00;99346.50;5111838;28;20039;-60
2022/02/14 10:38:58;;;;;;;9.18;4.53;;;;;;;2.95;51.96;99334.56;5110751;28;20180;-60
2022/02/14 10:41:26;;;;;;;8.00;3.75;;;;;;;2.89;52.02;99316.63;5110385;28;20063;-61
2022/02/14 10:43:52;;;;;;;8.70;4.15;;;;;;;3.16;51.57;99342.91;5110165;27;20042;-63
2022/02/14 10:46:20;;;;;;;10.20;4.00;;;;;;;3.04;52.12;99319.91;5120189;27;20038;-61
2022/02/14 10:48:46;;;;;;;5.70;3.20;;;;;;;2.95;52.57;99354.25;5114324;27;20139;-62
2022/02/14 10:51:19;;;;;;;6.72;3.78;;;;;;;2.84;52.82;99335.50;5109209;28;20046;-64
2022/02/14 10:53:48;;;;;;;5.47;2.63;;;;;;;3.11;52.69;99324.97;5110640;28;20503;-61
2022/02/14 10:56:18;;;;;;;8.57;3.50;;;;;;;4.46;49.45;99332.66;5111583;28;20039;-62
2022/02/14 10:58:44;;;;;;;6.75;3.72;;;;;;;5.69;46.40;99323.59;5110743;28;20043;-64
2022/02/14 11:01:11;;;;;;;6.53;3.17;;;;;;;6.49;44.39;99328.69;5129401;27;20075;-61
2022/02/14 11:03:39;;;;;;;8.65;3.78;;;;;;;7.20;42.72;99333.81;5148369;27;20061;-63
2022/02/14 11:06:09;;;;;;;9.90;4.38;;;;;;;7.72;41.55;99320.31;5137557;27;20475;-64
2022/02/14 11:08:35;;;;;;;10.82;5.18;;;;;;;8.39;40.63;99328.69;5149447;27;20034;-62
2022/02/14 11:11:04;;;;;;;6.47;4.05;;;;;;;8.87;38.99;99347.84;5135151;27;20035;-63
2022/02/14 11:13:31;;;;;;;6.60;3.87;;;;;;;8.68;39.47;99320.00;5148760;27;20070;-63
2022/02/14 11:16:02;;;;;;;7.93;3.67;;;;;;;8.78;38.94;99323.97;5122289;27;20289;-59
2022/02/14 11:18:33;;;;;;;9.18;4.75;;;;;;;9.10;38.72;99315.13;5131791;27;20058;-61
2022/02/14 11:20:59;;;;;;;9.15;4.78;;;;;;;10.08;36.84;99321.06;5113107;27;20039;-62
2022/02/14 11:23:27;;;;;;;6.25;3.70;;;;;;;10.22;35.62;99331.78;5113418;27;20041;-63
2022/02/14 11:26:15;;;;;;;9.70;5.35;;;;;;;10.59;35.84;99323.41;5113161;27;20066;-60
2022/02/14 11:28:56;;;;;;;7.80;4.75;;;;;;;11.16;34.89;99329.69;5131338;27;20074;-59
2022/02/14 11:31:29;;;;;;;11.88;5.00;;;;;;;11.25;35.05;99330.16;5110986;28;20507;-59
2022/02/14 11:34:00;;;;;;;8.02;4.63;;;;;;;11.78;34.29;99322.63;5116863;27;20137;-69